sensor_id;sensor_type;location;lat;lon;timestamp;temperature;humidity
27759;DHT22;15148;48.972;12.794;2023-05-09T00:01:10;10.10;99.90
27759;DHT22;15148;48.972;12.794;2023-05-09T00:06:13;9.90;99.90
27759;DHT22;15148;48.972;12.794;2023-05-09T00:11:16;9.80;99.90
27759;DHT22;15148;48.972;12.794;2023-05-09T00:16:17;9.80;99.90
27759;DHT22;15148;48.972;12.794;2023-05-09T00:21:21;9.70;99.90
27759;DHT22;15148;48.972;12.794;2023-05-09T00:26:22;9.60;99.90
27759;DHT22;15148;48.972;12.794;2023-05-09T00:31:24;9.50;99.90
27759;DHT22;15148;48.972;12.794;2023-05-09T00:36:26;9.50;99.90
27759;DHT22;15148;48.972;12.794;2023-05-09T00:41:28;9.30;99.90
27759;DHT22;15148;48.972;12.794;2023-05-09T00:46:30;9.30;99.90
27759;DHT22;15148;48.972;12.794;2023-05-09T00:51:33;9.40;99.90
27759;DHT22;15148;48.972;12.794;2023-05-09T00:56:36;9.40;99.90
27759;DHT22;15148;48.972;12.794;2023-05-09T01:01:38;9.20;99.90
27759;DHT22;15148;48.972;12.794;2023-05-09T01:07:09;9.20;99.90
27759;DHT22;15148;48.972;12.794;2023-05-09T01:17:57;9.10;99.90
27759;DHT22;15148;48.972;12.794;2023-05-09T01:28:50;9.10;99.90
27759;DHT22;15148;48.972;12.794;2023-05-09T01:33:59;9.20;99.90
27759;DHT22;15148;48.972;12.794;2023-05-09T01:39:03;9.10;99.90
27759;DHT22;15148;48.972;12.794;2023-05-09T01:44:10;9.00;99.90
27759;DHT22;15148;48.972;12.794;2023-05-09T01:49:12;9.00;99.90
27759;DHT22;15148;48.972;12.794;2023-05-09T01:54:15;9.20;99.90
27759;DHT22;15148;48.972;12.794;2023-05-09T01:59:18;9.20;99.90
27759;DHT22;15148;48.972;12.794;2023-05-09T02:04:21;9.20;99.90
27759;DHT22;15148;48.972;12.794;2023-05-09T02:09:23;9.00;99.90
27759;DHT22;15148;48.972;12.794;2023-05-09T02:14:25;9.10;99.90
27759;DHT22;15148;48.972;12.794;2023-05-09T02:19:27;8.90;99.90
27759;DHT22;15148;48.972;12.794;2023-05-09T02:24:31;8.90;99.90
27759;DHT22;15148;48.972;12.794;2023-05-09T02:29:39;9.00;99.90
27759;DHT22;15148;48.972;12.794;2023-05-09T02:34:42;8.90;99.90
27759;DHT22;15148;48.972;12.794;2023-05-09T02:39:44;8.90;99.90
27759;DHT22;15148;48.972;12.794;2023-05-09T02:44:46;9.00;99.90
27759;DHT22;15148;48.972;12.794;2023-05-09T02:49:49;9.00;99.90
27759;DHT22;15148;48.972;12.794;2023-05-09T02:54:51;9.00;99.90
27759;DHT22;15148;48.972;12.794;2023-05-09T02:59:53;8.90;99.90
27759;DHT22;15148;48.972;12.794;2023-05-09T03:04:56;8.90;99.90
27759;DHT22;15148;48.972;12.794;2023-05-09T03:09:58;8.80;99.90
27759;DHT22;15148;48.972;12.794;2023-05-09T03:15:00;8.80;99.90
27759;DHT22;15148;48.972;12.794;2023-05-09T03:20:04;8.70;99.90
27759;DHT22;15148;48.972;12.794;2023-05-09T03:25:06;8.60;99.90
27759;DHT22;15148;48.972;12.794;2023-05-09T03:30:09;8.60;99.90
27759;DHT22;15148;48.972;12.794;2023-05-09T03:35:11;8.50;99.90
27759;DHT22;15148;48.972;12.794;2023-05-09T03:40:14;8.40;99.90
27759;DHT22;15148;48.972;12.794;2023-05-09T03:45:35;8.30;99.90
27759;DHT22;15148;48.972;12.794;2023-05-09T03:50:37;8.30;99.90
27759;DHT22;15148;48.972;12.794;2023-05-09T03:55:39;8.20;99.90
27759;DHT22;15148;48.972;12.794;2023-05-09T04:00:42;8.10;99.90
27759;DHT22;15148;48.972;12.794;2023-05-09T04:05:50;8.10;99.90
27759;DHT22;15148;48.972;12.794;2023-05-09T04:11:03;8.10;99.90
27759;DHT22;15148;48.972;12.794;2023-05-09T04:16:05;7.90;99.90
27759;DHT22;15148;48.972;12.794;2023-05-09T04:21:08;7.80;99.90
27759;DHT22;15148;48.972;12.794;2023-05-09T04:26:10;7.80;99.90
27759;DHT22;15148;48.972;12.794;2023-05-09T04:31:16;7.60;99.90
27759;DHT22;15148;48.972;12.794;2023-05-09T04:36:21;7.60;99.90
27759;DHT22;15148;48.972;12.794;2023-05-09T04:41:23;7.60;99.90
27759;DHT22;15148;48.972;12.794;2023-05-09T04:46:25;7.70;99.90
27759;DHT22;15148;48.972;12.794;2023-05-09T04:51:28;7.80;99.90
27759;DHT22;15148;48.972;12.794;2023-05-09T04:56:30;7.90;99.90
27759;DHT22;15148;48.972;12.794;2023-05-09T05:01:34;8.20;99.90
27759;DHT22;15148;48.972;12.794;2023-05-09T05:06:36;8.40;99.90
27759;DHT22;15148;48.972;12.794;2023-05-09T05:11:38;8.70;99.90
27759;DHT22;15148;48.972;12.794;2023-05-09T05:16:45;9.10;99.90
27759;DHT22;15148;48.972;12.794;2023-05-09T05:21:47;11.40;99.90
27759;DHT22;15148;48.972;12.794;2023-05-09T05:26:50;14.50;99.90
27759;DHT22;15148;48.972;12.794;2023-05-09T05:31:53;16.50;99.90
27759;DHT22;15148;48.972;12.794;2023-05-09T05:36:55;18.40;99.90
27759;DHT22;15148;48.972;12.794;2023-05-09T05:41:57;18.70;99.90
27759;DHT22;15148;48.972;12.794;2023-05-09T05:46:59;18.60;99.70
27759;DHT22;15148;48.972;12.794;2023-05-09T05:52:01;17.40;99.00
27759;DHT22;15148;48.972;12.794;2023-05-09T05:57:04;16.70;99.90
27759;DHT22;15148;48.972;12.794;2023-05-09T06:02:05;15.70;99.90
27759;DHT22;15148;48.972;12.794;2023-05-09T06:07:10;15.40;99.90
27759;DHT22;15148;48.972;12.794;2023-05-09T06:12:13;14.80;99.90
27759;DHT22;15148;48.972;12.794;2023-05-09T06:17:17;14.40;99.90
27759;DHT22;15148;48.972;12.794;2023-05-09T06:22:19;14.40;99.90
27759;DHT22;15148;48.972;12.794;2023-05-09T06:27:21;14.80;99.90
27759;DHT22;15148;48.972;12.794;2023-05-09T06:32:23;15.50;99.90
27759;DHT22;15148;48.972;12.794;2023-05-09T06:37:26;15.80;99.90
27759;DHT22;15148;48.972;12.794;2023-05-09T06:42:28;16.10;99.90
27759;DHT22;15148;48.972;12.794;2023-05-09T06:47:30;15.50;99.90
27759;DHT22;15148;48.972;12.794;2023-05-09T06:52:32;16.10;99.90
27759;DHT22;15148;48.972;12.794;2023-05-09T06:57:34;15.90;99.90
27759;DHT22;15148;48.972;12.794;2023-05-09T07:02:36;16.10;96.80
27759;DHT22;15148;48.972;12.794;2023-05-09T07:07:42;16.50;98.90
27759;DHT22;15148;48.972;12.794;2023-05-09T07:12:44;16.90;98.50
27759;DHT22;15148;48.972;12.794;2023-05-09T07:17:46;17.00;97.90
27759;DHT22;15148;48.972;12.794;2023-05-09T07:22:48;17.20;97.30
27759;DHT22;15148;48.972;12.794;2023-05-09T07:27:49;17.50;98.40
27759;DHT22;15148;48.972;12.794;2023-05-09T07:32:51;17.70;97.60
27759;DHT22;15148;48.972;12.794;2023-05-09T07:37:53;17.90;96.70
27759;DHT22;15148;48.972;12.794;2023-05-09T07:42:55;17.80;98.20
27759;DHT22;15148;48.972;12.794;2023-05-09T07:47:57;17.60;99.90
27759;DHT22;15148;48.972;12.794;2023-05-09T07:52:59;18.00;99.90
27759;DHT22;15148;48.972;12.794;2023-05-09T07:58:01;18.10;95.20
27759;DHT22;15148;48.972;12.794;2023-05-09T08:03:02;17.80;99.90
27759;DHT22;15148;48.972;12.794;2023-05-09T08:08:04;18.20;98.40
27759;DHT22;15148;48.972;12.794;2023-05-09T08:13:06;17.70;96.90
27759;DHT22;15148;48.972;12.794;2023-05-09T08:18:08;17.80;97.20
27759;DHT22;15148;48.972;12.794;2023-05-09T08:23:10;18.30;98.30
27759;DHT22;15148;48.972;12.794;2023-05-09T08:28:12;18.70;96.60
27759;DHT22;15148;48.972;12.794;2023-05-09T08:33:14;18.90;95.20
27759;DHT22;15148;48.972;12.794;2023-05-09T08:38:16;18.80;94.10
27759;DHT22;15148;48.972;12.794;2023-05-09T08:43:20;18.70;93.10
27759;DHT22;15148;48.972;12.794;2023-05-09T08:48:24;18.60;94.00
27759;DHT22;15148;48.972;12.794;2023-05-09T08:53:27;18.10;94.90
27759;DHT22;15148;48.972;12.794;2023-05-09T08:58:30;18.30;96.50
27759;DHT22;15148;48.972;12.794;2023-05-09T09:03:32;19.00;95.30
27759;DHT22;15148;48.972;12.794;2023-05-09T09:08:34;19.20;96.00
27759;DHT22;15148;48.972;12.794;2023-05-09T09:13:37;18.70;93.60
27759;DHT22;15148;48.972;12.794;2023-05-09T09:18:41;19.20;95.60
27759;DHT22;15148;48.972;12.794;2023-05-09T09:23:43;19.40;94.60
27759;DHT22;15148;48.972;12.794;2023-05-09T09:28:47;19.50;94.40
27759;DHT22;15148;48.972;12.794;2023-05-09T09:33:50;19.90;94.70
27759;DHT22;15148;48.972;12.794;2023-05-09T09:38:57;20.00;94.20
27759;DHT22;15148;48.972;12.794;2023-05-09T09:44:08;19.90;92.60
27759;DHT22;15148;48.972;12.794;2023-05-09T09:49:11;20.20;92.50
27759;DHT22;15148;48.972;12.794;2023-05-09T09:54:14;20.30;93.40
27759;DHT22;15148;48.972;12.794;2023-05-09T09:59:17;19.60;92.30
27759;DHT22;15148;48.972;12.794;2023-05-09T10:04:19;19.90;93.60
27759;DHT22;15148;48.972;12.794;2023-05-09T10:09:22;20.10;93.30
27759;DHT22;15148;48.972;12.794;2023-05-09T10:14:25;20.20;91.60
27759;DHT22;15148;48.972;12.794;2023-05-09T10:19:28;20.40;90.10
27759;DHT22;15148;48.972;12.794;2023-05-09T10:24:50;20.80;91.30
27759;DHT22;15148;48.972;12.794;2023-05-09T10:30:06;20.90;90.70
27759;DHT22;15148;48.972;12.794;2023-05-09T10:35:10;21.20;90.40
27759;DHT22;15148;48.972;12.794;2023-05-09T10:40:12;21.20;89.90
27759;DHT22;15148;48.972;12.794;2023-05-09T10:45:16;21.20;87.00
27759;DHT22;15148;48.972;12.794;2023-05-09T10:50:19;21.00;88.60
27759;DHT22;15148;48.972;12.794;2023-05-09T10:55:22;21.20;89.60
27759;DHT22;15148;48.972;12.794;2023-05-09T11:00:25;21.30;87.60
27759;DHT22;15148;48.972;12.794;2023-05-09T11:05:38;21.40;85.80
27759;DHT22;15148;48.972;12.794;2023-05-09T11:10:41;21.30;81.00
27759;DHT22;15148;48.972;12.794;2023-05-09T11:20:53;21.50;86.30
27759;DHT22;15148;48.972;12.794;2023-05-09T11:26:06;21.60;85.90
27759;DHT22;15148;48.972;12.794;2023-05-09T11:31:17;21.60;84.30
27759;DHT22;15148;48.972;12.794;2023-05-09T11:41:30;21.70;82.40
27759;DHT22;15148;48.972;12.794;2023-05-09T11:46:32;21.70;85.50
27759;DHT22;15148;48.972;12.794;2023-05-09T11:51:37;21.90;81.60
27759;DHT22;15148;48.972;12.794;2023-05-09T11:56:39;22.00;79.40
27759;DHT22;15148;48.972;12.794;2023-05-09T12:01:42;22.00;80.60
27759;DHT22;15148;48.972;12.794;2023-05-09T12:06:46;22.20;80.10
27759;DHT22;15148;48.972;12.794;2023-05-09T12:11:49;22.10;77.50
27759;DHT22;15148;48.972;12.794;2023-05-09T12:16:51;22.10;75.70
27759;DHT22;15148;48.972;12.794;2023-05-09T12:21:57;22.30;78.00
27759;DHT22;15148;48.972;12.794;2023-05-09T12:27:00;22.30;73.70
27759;DHT22;15148;48.972;12.794;2023-05-09T12:32:02;22.40;77.30
27759;DHT22;15148;48.972;12.794;2023-05-09T12:37:16;22.40;76.10
27759;DHT22;15148;48.972;12.794;2023-05-09T12:42:18;22.50;75.00
27759;DHT22;15148;48.972;12.794;2023-05-09T12:47:20;22.40;70.00
27759;DHT22;15148;48.972;12.794;2023-05-09T12:52:22;22.40;73.30
27759;DHT22;15148;48.972;12.794;2023-05-09T12:57:24;22.40;71.90
27759;DHT22;15148;48.972;12.794;2023-05-09T13:02:39;22.50;74.00
27759;DHT22;15148;48.972;12.794;2023-05-09T13:07:44;22.60;72.80
27759;DHT22;15148;48.972;12.794;2023-05-09T13:12:46;22.70;72.20
27759;DHT22;15148;48.972;12.794;2023-05-09T13:17:50;22.60;69.60
27759;DHT22;15148;48.972;12.794;2023-05-09T13:22:52;22.70;72.20
27759;DHT22;15148;48.972;12.794;2023-05-09T13:27:54;22.60;69.10
27759;DHT22;15148;48.972;12.794;2023-05-09T13:32:56;22.50;71.40
27759;DHT22;15148;48.972;12.794;2023-05-09T13:38:04;22.60;72.80
27759;DHT22;15148;48.972;12.794;2023-05-09T13:43:06;22.50;75.70
27759;DHT22;15148;48.972;12.794;2023-05-09T13:48:08;22.40;72.30
27759;DHT22;15148;48.972;12.794;2023-05-09T13:53:10;22.60;71.30
27759;DHT22;15148;48.972;12.794;2023-05-09T13:58:12;22.60;67.80
27759;DHT22;15148;48.972;12.794;2023-05-09T14:03:14;22.70;70.50
27759;DHT22;15148;48.972;12.794;2023-05-09T14:08:16;22.70;69.80
27759;DHT22;15148;48.972;12.794;2023-05-09T14:13:18;22.60;68.10
27759;DHT22;15148;48.972;12.794;2023-05-09T14:18:20;22.50;70.60
27759;DHT22;15148;48.972;12.794;2023-05-09T14:23:21;22.60;69.40
27759;DHT22;15148;48.972;12.794;2023-05-09T14:28:23;22.40;70.20
27759;DHT22;15148;48.972;12.794;2023-05-09T14:33:25;22.30;70.50
27759;DHT22;15148;48.972;12.794;2023-05-09T14:38:28;22.30;68.00
27759;DHT22;15148;48.972;12.794;2023-05-09T14:43:30;22.20;73.20
27759;DHT22;15148;48.972;12.794;2023-05-09T14:48:32;22.10;67.50
27759;DHT22;15148;48.972;12.794;2023-05-09T14:53:37;21.90;70.90
27759;DHT22;15148;48.972;12.794;2023-05-09T14:58:42;21.70;76.60
27759;DHT22;15148;48.972;12.794;2023-05-09T15:03:44;21.60;71.00
27759;DHT22;15148;48.972;12.794;2023-05-09T15:08:48;21.40;68.80
27759;DHT22;15148;48.972;12.794;2023-05-09T15:13:52;21.20;68.70
27759;DHT22;15148;48.972;12.794;2023-05-09T15:18:53;21.20;73.60
27759;DHT22;15148;48.972;12.794;2023-05-09T15:23:55;21.20;73.80
27759;DHT22;15148;48.972;12.794;2023-05-09T15:28:57;21.00;72.40
27759;DHT22;15148;48.972;12.794;2023-05-09T15:33:59;20.80;71.50
27759;DHT22;15148;48.972;12.794;2023-05-09T15:39:02;20.60;73.90
27759;DHT22;15148;48.972;12.794;2023-05-09T15:44:05;20.50;72.50
27759;DHT22;15148;48.972;12.794;2023-05-09T15:49:07;20.40;74.30
27759;DHT22;15148;48.972;12.794;2023-05-09T15:54:09;20.30;73.20
27759;DHT22;15148;48.972;12.794;2023-05-09T15:59:11;20.10;76.10
27759;DHT22;15148;48.972;12.794;2023-05-09T16:04:13;20.10;75.80
27759;DHT22;15148;48.972;12.794;2023-05-09T16:09:14;20.00;77.70
27759;DHT22;15148;48.972;12.794;2023-05-09T16:14:16;19.80;84.40
27759;DHT22;15148;48.972;12.794;2023-05-09T16:19:18;19.70;79.30
27759;DHT22;15148;48.972;12.794;2023-05-09T16:24:20;19.70;78.60
27759;DHT22;15148;48.972;12.794;2023-05-09T16:29:22;19.60;77.70
27759;DHT22;15148;48.972;12.794;2023-05-09T16:34:24;19.60;77.40
27759;DHT22;15148;48.972;12.794;2023-05-09T16:39:26;19.50;78.40
27759;DHT22;15148;48.972;12.794;2023-05-09T16:44:28;19.40;79.90
27759;DHT22;15148;48.972;12.794;2023-05-09T16:49:30;19.40;79.90
27759;DHT22;15148;48.972;12.794;2023-05-09T16:54:32;19.30;80.30
27759;DHT22;15148;48.972;12.794;2023-05-09T16:59:34;19.20;81.80
27759;DHT22;15148;48.972;12.794;2023-05-09T17:04:36;19.20;82.50
27759;DHT22;15148;48.972;12.794;2023-05-09T17:09:38;19.10;84.80
27759;DHT22;15148;48.972;12.794;2023-05-09T17:14:40;19.00;85.90
27759;DHT22;15148;48.972;12.794;2023-05-09T17:19:42;18.90;88.40
27759;DHT22;15148;48.972;12.794;2023-05-09T17:24:45;18.60;90.20
27759;DHT22;15148;48.972;12.794;2023-05-09T17:29:46;18.50;84.00
27759;DHT22;15148;48.972;12.794;2023-05-09T17:34:48;18.30;91.80
27759;DHT22;15148;48.972;12.794;2023-05-09T17:39:50;18.20;90.80
27759;DHT22;15148;48.972;12.794;2023-05-09T17:44:52;18.10;91.90
27759;DHT22;15148;48.972;12.794;2023-05-09T17:49:54;17.80;94.70
27759;DHT22;15148;48.972;12.794;2023-05-09T17:54:56;17.60;98.50
27759;DHT22;15148;48.972;12.794;2023-05-09T17:59:57;17.30;99.90
27759;DHT22;15148;48.972;12.794;2023-05-09T18:05:01;17.10;99.90
27759;DHT22;15148;48.972;12.794;2023-05-09T18:10:03;16.70;99.90
27759;DHT22;15148;48.972;12.794;2023-05-09T18:15:05;16.40;99.90
27759;DHT22;15148;48.972;12.794;2023-05-09T18:20:08;16.20;99.90
27759;DHT22;15148;48.972;12.794;2023-05-09T18:25:10;16.00;99.90
27759;DHT22;15148;48.972;12.794;2023-05-09T18:30:12;15.70;99.90
27759;DHT22;15148;48.972;12.794;2023-05-09T18:35:14;15.40;99.90
27759;DHT22;15148;48.972;12.794;2023-05-09T18:40:16;15.30;99.90
27759;DHT22;15148;48.972;12.794;2023-05-09T18:45:18;15.20;99.90
27759;DHT22;15148;48.972;12.794;2023-05-09T18:50:20;15.00;99.90
27759;DHT22;15148;48.972;12.794;2023-05-09T18:55:22;14.80;99.90
27759;DHT22;15148;48.972;12.794;2023-05-09T19:00:24;14.70;99.90
27759;DHT22;15148;48.972;12.794;2023-05-09T19:05:26;14.50;99.90
27759;DHT22;15148;48.972;12.794;2023-05-09T19:10:28;14.40;99.90
27759;DHT22;15148;48.972;12.794;2023-05-09T19:15:30;14.20;99.90
27759;DHT22;15148;48.972;12.794;2023-05-09T19:20:32;14.20;99.90
27759;DHT22;15148;48.972;12.794;2023-05-09T19:25:34;14.20;99.90
27759;DHT22;15148;48.972;12.794;2023-05-09T19:30:37;14.10;99.90
27759;DHT22;15148;48.972;12.794;2023-05-09T19:35:43;14.00;99.90
27759;DHT22;15148;48.972;12.794;2023-05-09T19:40:45;14.00;99.90
27759;DHT22;15148;48.972;12.794;2023-05-09T19:45:46;14.00;99.90
27759;DHT22;15148;48.972;12.794;2023-05-09T19:50:54;14.00;99.90
27759;DHT22;15148;48.972;12.794;2023-05-09T19:55:56;13.90;99.90
27759;DHT22;15148;48.972;12.794;2023-05-09T20:00:58;13.80;99.90
27759;DHT22;15148;48.972;12.794;2023-05-09T20:06:00;13.80;99.90
27759;DHT22;15148;48.972;12.794;2023-05-09T20:11:02;13.70;99.90
27759;DHT22;15148;48.972;12.794;2023-05-09T20:16:04;13.60;99.90
27759;DHT22;15148;48.972;12.794;2023-05-09T20:21:06;13.50;99.90
27759;DHT22;15148;48.972;12.794;2023-05-09T20:26:10;13.50;99.90
27759;DHT22;15148;48.972;12.794;2023-05-09T20:31:12;13.30;99.90
27759;DHT22;15148;48.972;12.794;2023-05-09T20:36:14;13.20;99.90
27759;DHT22;15148;48.972;12.794;2023-05-09T20:41:16;13.30;99.90
27759;DHT22;15148;48.972;12.794;2023-05-09T20:46:18;13.30;99.90
27759;DHT22;15148;48.972;12.794;2023-05-09T20:51:24;13.30;99.90
27759;DHT22;15148;48.972;12.794;2023-05-09T20:56:27;13.10;99.90
27759;DHT22;15148;48.972;12.794;2023-05-09T21:01:29;13.00;99.90
27759;DHT22;15148;48.972;12.794;2023-05-09T21:06:36;13.00;99.90
27759;DHT22;15148;48.972;12.794;2023-05-09T21:11:38;13.00;99.90
27759;DHT22;15148;48.972;12.794;2023-05-09T21:16:40;13.00;99.90
27759;DHT22;15148;48.972;12.794;2023-05-09T21:21:44;13.00;99.90
27759;DHT22;15148;48.972;12.794;2023-05-09T21:26:46;13.00;99.90
27759;DHT22;15148;48.972;12.794;2023-05-09T21:31:48;12.90;99.90
27759;DHT22;15148;48.972;12.794;2023-05-09T21:36:49;12.70;99.90
27759;DHT22;15148;48.972;12.794;2023-05-09T21:41:51;12.60;99.90
27759;DHT22;15148;48.972;12.794;2023-05-09T21:46:53;12.50;99.90
27759;DHT22;15148;48.972;12.794;2023-05-09T21:51:55;12.30;99.90
27759;DHT22;15148;48.972;12.794;2023-05-09T21:56:57;12.30;99.90
27759;DHT22;15148;48.972;12.794;2023-05-09T22:01:58;12.10;99.90
27759;DHT22;15148;48.972;12.794;2023-05-09T22:07:00;11.90;99.90
27759;DHT22;15148;48.972;12.794;2023-05-09T22:12:03;11.90;99.90
27759;DHT22;15148;48.972;12.794;2023-05-09T22:17:04;11.60;99.90
27759;DHT22;15148;48.972;12.794;2023-05-09T22:22:07;11.70;99.90
27759;DHT22;15148;48.972;12.794;2023-05-09T22:27:09;11.60;99.90
27759;DHT22;15148;48.972;12.794;2023-05-09T22:32:12;11.60;99.90
27759;DHT22;15148;48.972;12.794;2023-05-09T22:37:14;11.50;99.90
27759;DHT22;15148;48.972;12.794;2023-05-09T22:42:19;11.60;99.90
27759;DHT22;15148;48.972;12.794;2023-05-09T22:47:21;11.40;99.90
27759;DHT22;15148;48.972;12.794;2023-05-09T22:52:23;11.40;99.90
27759;DHT22;15148;48.972;12.794;2023-05-09T22:57:24;11.50;99.90
27759;DHT22;15148;48.972;12.794;2023-05-09T23:02:26;11.50;99.90
27759;DHT22;15148;48.972;12.794;2023-05-09T23:07:28;11.40;99.90
27759;DHT22;15148;48.972;12.794;2023-05-09T23:12:30;11.50;99.90
27759;DHT22;15148;48.972;12.794;2023-05-09T23:17:32;11.50;99.90
27759;DHT22;15148;48.972;12.794;2023-05-09T23:22:34;11.50;99.90
27759;DHT22;15148;48.972;12.794;2023-05-09T23:27:36;11.50;99.90
27759;DHT22;15148;48.972;12.794;2023-05-09T23:32:41;11.60;99.90
27759;DHT22;15148;48.972;12.794;2023-05-09T23:37:43;11.50;99.90
27759;DHT22;15148;48.972;12.794;2023-05-09T23:42:44;11.70;99.90
27759;DHT22;15148;48.972;12.794;2023-05-09T23:47:46;11.80;99.90
27759;DHT22;15148;48.972;12.794;2023-05-09T23:52:48;11.80;99.90
27759;DHT22;15148;48.972;12.794;2023-05-09T23:57:51;12.00;99.90
